»·PEaware :: N101JP KCRQ-KCNO

N101JP :: KCRQ-KCNO

FLIGHT INFORMATION

Flight Status: Arrived
Operator: Privately registered:
United States
More flights under this callsign
Pilot: James T. (870)
Aircraft: PILATUS PC-12 EAGLE
(PC12)
More flights by this aircraft type
Origin: KCRQ McClellan-Palomar
United States
Destination: KCNO Chino
United States
More flights between these airports :: More routes between these airports
Route: +V186 PDZ
File this flight plan on PilotEdge
Remarks:
Altitude:
(Current/Filed)
100ft
Speed:
(Current/Filed)
200kts
Departed: 19-Jan-16 02:36 PM
Arrived: 19-Jan-16 03:15 PM
Distance/Time
Traveled:
54nm/0:39
Distance/Time
To Go:
Arrived

Flight Plot

Page will automatically refresh every two minutes.


Map Options




Map Legend


Flown Route
Filed Route
Departure Airport
Arrival Airport
Navaid (VOR, NDB)
Fix

Horizontal Profiles

Position Reports

Time Latitude Longitude Heading Altitude Ground
Speed
19-Jan-16 14:18 33.126519 -117.279699 353 336ft 0kts
19-Jan-16 14:19 33.126519 -117.279699 353 336ft 0kts
19-Jan-16 14:20 33.126519 -117.279699 353 336ft 0kts
19-Jan-16 14:21 33.126519 -117.279699 353 336ft 0kts
19-Jan-16 14:22 33.126519 -117.279699 353 336ft 0kts
19-Jan-16 14:23 33.126519 -117.279699 353 336ft 0kts
19-Jan-16 14:24 33.126519 -117.279699 353 336ft 0kts
19-Jan-16 14:25 33.126519 -117.279699 353 336ft 0kts
19-Jan-16 14:26 33.126519 -117.279699 353 336ft 0kts
19-Jan-16 14:27 33.126519 -117.279699 353 336ft 0kts
19-Jan-16 14:28 33.127850 -117.277343 79 337ft 12kts
19-Jan-16 14:29 33.128368 -117.274145 79 337ft 7kts
19-Jan-16 14:30 33.128562 -117.272956 85 336ft 0kts
19-Jan-16 14:31 33.129054 -117.275173 258 337ft 69kts
19-Jan-16 14:32 33.123653 -117.319060 261 1547ft 160kts
19-Jan-16 14:33 33.116013 -117.372351 249 3359ft 167kts
19-Jan-16 14:34 33.086330 -117.359162 81 5064ft 169kts
19-Jan-16 14:35 33.090193 -117.299284 81 6013ft 213kts
19-Jan-16 14:36 33.129409 -117.264969 11 7765ft 167kts
19-Jan-16 14:37 33.171029 -117.248829 11 9519ft 157kts
19-Jan-16 14:38 33.210614 -117.231259 11 10003ft 156kts
19-Jan-16 14:39 33.252900 -117.212809 11 10005ft 175kts
19-Jan-16 14:40 33.300164 -117.192953 11 9999ft 184kts
19-Jan-16 14:41 33.348115 -117.172662 11 10000ft 184kts
19-Jan-16 14:42 33.395934 -117.153300 351 9981ft 177kts
19-Jan-16 14:43 33.442349 -117.160179 318 10003ft 164kts
19-Jan-16 14:44 33.486015 -117.174834 329 9976ft 169kts
19-Jan-16 14:45 33.524372 -117.201936 323 9995ft 165kts
19-Jan-16 14:46 33.561014 -117.231442 322 9996ft 164kts
19-Jan-16 14:47 33.597942 -117.261946 323 9994ft 164kts
19-Jan-16 14:48 33.635267 -117.292948 323 9993ft 164kts
19-Jan-16 14:49 33.671894 -117.323412 323 9993ft 163kts
19-Jan-16 14:50 33.708747 -117.354129 323 9598ft 176kts
19-Jan-16 14:51 33.749501 -117.388063 323 8481ft 193kts
19-Jan-16 14:52 33.793734 -117.425046 322 7313ft 199kts
19-Jan-16 14:53 33.837506 -117.461656 322 6175ft 203kts
19-Jan-16 14:54 33.877787 -117.495373 321 5996ft 186kts
19-Jan-16 14:55 33.916730 -117.520230 8 5694ft 196kts
19-Jan-16 14:56 33.941589 -117.465278 64 4659ft 222kts
19-Jan-16 14:57 33.960432 -117.411727 64 4360ft 209kts
19-Jan-16 14:58 33.976302 -117.366928 63 4333ft 199kts
19-Jan-16 14:59 34.006662 -117.329350 39 4290ft 180kts
19-Jan-16 15:00 34.017620 -117.285111 145 4266ft 174kts
19-Jan-16 15:01 33.991695 -117.307632 256 4307ft 146kts
19-Jan-16 15:02 33.981596 -117.347903 256 4318ft 149kts
19-Jan-16 15:03 33.977610 -117.390198 271 3779ft 174kts
19-Jan-16 15:04 33.977350 -117.440261 270 2954ft 187kts
19-Jan-16 15:05 33.977022 -117.483440 270 2901ft 167kts
19-Jan-16 15:06 33.976682 -117.528444 270 2081ft 173kts
19-Jan-16 15:07 33.976383 -117.566013 270 1695ft 117kts
19-Jan-16 15:08 33.976124 -117.598082 270 1175ft 95kts
19-Jan-16 15:09 33.975884 -117.626520 269 731ft 87kts
19-Jan-16 15:10 33.976101 -117.639143 328 655ft 6kts
19-Jan-16 15:11 33.978926 -117.639868 220 655ft 10kts
19-Jan-16 15:12 33.978670 -117.639904 178 654ft 0kts

Navigation Log

Ident Type
Flight plan parsing failed, navigation log unavailable